createdAt,value
2022-11-08T09:03:53.339Z,99857.97
2022-11-08T09:06:43.878Z,99867.22
2022-11-08T09:09:31.516Z,99861.09
2022-11-08T09:12:19.100Z,99852.50
2022-11-08T09:15:07.258Z,99850.59
2022-11-08T09:17:57.405Z,99843.66
2022-11-08T09:20:45.231Z,99831.78
2022-11-08T09:23:32.819Z,99835.72
2022-11-08T09:26:20.503Z,99838.28
2022-11-08T09:29:08.161Z,99830.84
2022-11-08T09:31:56.291Z,99835.75
2022-11-08T09:34:45.306Z,99837.81
2022-11-08T09:37:32.962Z,99841.09
2022-11-08T09:40:48.896Z,99840.94
2022-11-08T09:44:07.703Z,99841.31
2022-11-08T09:47:04.741Z,99833.31
2022-11-08T09:50:05.923Z,99827.84
2022-11-08T09:53:18.080Z,99828.16
2022-11-08T09:56:26.963Z,99826.94
2022-11-08T09:59:29.738Z,99819.63
2022-11-08T10:02:23.641Z,99822.03
2022-11-08T10:05:18.508Z,99816.88
2022-11-08T10:08:11.909Z,99817.69
2022-11-08T10:11:33.774Z,99825.44
2022-11-08T10:14:54.389Z,99812.84
2022-11-08T10:18:04.003Z,99813.66
2022-11-08T10:21:00.484Z,99814.78
2022-11-08T10:24:04.043Z,99810.97
2022-11-08T10:26:54.744Z,99807.94
2022-11-08T10:29:45.532Z,99818.56
2022-11-08T10:32:34.894Z,99812.84
2022-11-08T10:35:33.158Z,99811.72
2022-11-08T10:38:24.846Z,99819.91
2022-11-08T10:41:47.283Z,99810.50
2022-11-08T10:44:35.897Z,99812.00
2022-11-08T10:47:31.080Z,99809.00
2022-11-08T10:50:22.837Z,99807.09
2022-11-08T10:53:32.012Z,99813.47
2022-11-08T10:56:20.722Z,99813.59
2022-11-08T10:59:31.467Z,99810.06
2022-11-08T11:02:21.929Z,99804.63
2022-11-08T11:05:23.748Z,99802.88
2022-11-08T11:08:11.291Z,99811.44
2022-11-08T11:11:36.424Z,99806.44
2022-11-08T11:14:24.298Z,99798.38
2022-11-08T11:17:17.460Z,99801.94
2022-11-08T11:20:05.660Z,99795.44
2022-11-08T11:22:53.584Z,99796.47
2022-11-08T11:25:50.909Z,99790.22
2022-11-08T11:28:59.279Z,99786.00
2022-11-08T11:31:49.623Z,99786.00
2022-11-08T11:34:46.381Z,99781.88
2022-11-08T11:37:45.153Z,99789.63
2022-11-08T11:40:42.062Z,99777.00
2022-11-08T11:43:43.115Z,99783.69
2022-11-08T11:46:44.426Z,99780.69
2022-11-08T11:49:34.557Z,99782.91
2022-11-08T11:52:22.182Z,99788.88
2022-11-08T11:55:15.231Z,99791.63
2022-11-08T11:58:37.534Z,99791.22
2022-11-08T12:01:52.556Z,99793.41
2022-11-08T12:04:55.339Z,99795.47
2022-11-08T12:07:59.980Z,99787.44
2022-11-08T12:10:54.978Z,99791.78
2022-11-08T12:14:30.813Z,99789.84
2022-11-08T12:17:33.754Z,99785.66
2022-11-08T12:20:47.800Z,99792.69
2022-11-08T12:23:53.478Z,99795.97
2022-11-08T12:26:41.099Z,99796.47
2022-11-08T12:29:43.982Z,99795.66
2022-11-08T12:33:03.578Z,99796.91
2022-11-08T12:36:29.348Z,99797.56
2022-11-08T12:39:45.240Z,99790.66
2022-11-08T12:42:58.177Z,99802.22
2022-11-08T12:46:04.519Z,99798.94
2022-11-08T12:48:57.802Z,99802.50
2022-11-08T12:51:45.313Z,99801.97
2022-11-08T12:54:37.619Z,99800.19
2022-11-08T12:57:28.422Z,99800.84
2022-11-08T13:00:19.676Z,99797.34
2022-11-08T13:03:27.527Z,99803.28
2022-11-08T13:06:37.178Z,99791.50
2022-11-08T13:09:37.048Z,99787.28
2022-11-08T13:12:55.315Z,99783.75
2022-11-08T13:16:09.285Z,99773.94
2022-11-08T13:18:58.998Z,99774.09
2022-11-08T13:21:46.670Z,99771.13
2022-11-08T13:24:50.601Z,99770.16
2022-11-08T13:27:39.716Z,99770.16
2022-11-08T13:30:34.288Z,99771.78
2022-11-08T13:33:30.576Z,99765.69
2022-11-08T13:36:27.557Z,99777.91
2022-11-08T13:39:24.195Z,99777.25
2022-11-08T13:42:17.676Z,99769.34
2022-11-08T13:45:17.508Z,99768.53
2022-11-08T13:48:28.677Z,99774.66
2022-11-08T13:51:34.415Z,99762.69
2022-11-08T13:54:22.435Z,99762.03
2022-11-08T13:57:19.614Z,99776.88
2022-11-08T14:00:09.872Z,99775.38
2022-11-08T14:03:00.674Z,99782.81
2022-11-08T14:05:49.653Z,99782.97
2022-11-08T14:08:57.309Z,99780.53
2022-11-08T14:12:03.996Z,99771.03
2022-11-08T14:15:07.306Z,99778.34
2022-11-08T14:18:19.875Z,99777.78
2022-11-08T14:21:08.123Z,99786.75
2022-11-08T14:23:56.259Z,99771.97
2022-11-08T14:26:48.112Z,99776.88
2022-11-08T14:29:35.799Z,99789.22
2022-11-08T14:32:23.713Z,99792.47
2022-11-08T14:35:25.754Z,99785.41
2022-11-08T14:38:19.648Z,99784.31
2022-11-08T14:41:07.613Z,99779.16
2022-11-08T14:43:58.538Z,99776.72
2022-11-08T14:46:46.390Z,99779.56
2022-11-08T14:49:36.593Z,99781.34
2022-11-08T14:52:29.441Z,99778.34
2022-11-08T14:55:23.865Z,99777.50
2022-11-08T14:58:15.787Z,99774.94
2022-11-08T15:01:04.731Z,99774.28
2022-11-08T15:03:56.094Z,99776.72
2022-11-08T15:06:46.902Z,99774.94
2022-11-08T15:09:35.979Z,99764.22
2022-11-08T15:12:25.962Z,99773.63
2022-11-08T15:15:25.191Z,99775.91
2022-11-08T15:18:13.353Z,99780.09
2022-11-08T15:21:02.773Z,99776.88
2022-11-08T15:23:55.255Z,99782.56
2022-11-08T15:27:14.593Z,99782.41
2022-11-08T15:30:09.591Z,99791.38
2022-11-08T15:32:57.383Z,99787.72
2022-11-08T15:35:47.051Z,99786.91
2022-11-08T15:38:39.982Z,99788.97
2022-11-08T15:41:32.899Z,99789.63
2022-11-08T15:44:24.003Z,99785.81
2022-11-08T15:47:35.738Z,99797.34
2022-11-08T15:50:25.821Z,99801.53
2022-11-08T15:53:13.569Z,99791.50
2022-11-08T15:56:04.723Z,99808.75
2022-11-08T15:58:52.405Z,99790.84
2022-11-08T16:01:46.314Z,99789.19
2022-11-08T16:04:33.948Z,99790.69
2022-11-08T16:07:21.519Z,99788.09
2022-11-08T16:10:10.222Z,99812.41
2022-11-08T16:13:01.002Z,99795.16
2022-11-08T16:15:48.881Z,99793.69
2022-11-08T16:18:38.796Z,99803.31
2022-11-08T16:21:26.640Z,99794.34
2022-11-08T16:24:14.759Z,99801.16
2022-11-08T16:27:02.529Z,99800.19
2022-11-08T16:29:50.130Z,99797.50
2022-11-08T16:32:37.720Z,99811.19
2022-11-08T16:35:25.995Z,99810.50
2022-11-08T16:38:13.780Z,99800.19
2022-11-08T16:41:02.416Z,99808.34
2022-11-08T16:43:50.229Z,99795.44
2022-11-08T16:46:38.457Z,99803.19
2022-11-08T16:49:27.433Z,99812.84
2022-11-08T16:52:15.060Z,99798.69
2022-11-08T16:55:04.082Z,99812.91
2022-11-08T16:57:51.653Z,99813.75
2022-11-08T17:00:41.743Z,99810.94
2022-11-08T17:03:29.803Z,99808.16
2022-11-08T17:06:18.514Z,99808.53
2022-11-08T17:09:07.279Z,99810.84
2022-11-08T17:11:54.862Z,99814.53
2022-11-08T17:14:42.644Z,99807.84
2022-11-08T17:17:30.358Z,99805.13
2022-11-08T17:20:22.365Z,99802.03
2022-11-08T17:23:14.927Z,99802.59
2022-11-08T17:26:06.782Z,99806.81
2022-11-08T17:28:57.655Z,99796.47
2022-11-08T17:31:45.366Z,99797.16
2022-11-08T17:34:33.412Z,99801.50
2022-11-08T17:37:21.158Z,99804.75
2022-11-08T17:40:09.177Z,99803.81
2022-11-08T17:42:57.225Z,99813.31
2022-11-08T17:45:44.845Z,99811.41
2022-11-08T17:48:33.614Z,99801.34
2022-11-08T17:51:27.031Z,99797.81
2022-11-08T17:54:17.904Z,99789.94
2022-11-08T17:57:05.511Z,99795.91
2022-11-08T17:59:53.243Z,99796.19
2022-11-08T18:02:41.062Z,99797.31
2022-11-08T18:05:32.022Z,99806.00
2022-11-08T18:08:25.568Z,99812.50
2022-11-08T18:11:14.555Z,99826.63
2022-11-08T18:14:02.943Z,99815.19
2022-11-08T18:16:50.740Z,99825.38
2022-11-08T18:19:38.566Z,99817.22
2022-11-08T18:22:26.921Z,99820.31
2022-11-08T18:25:15.980Z,99827.63
2022-11-08T18:28:04.576Z,99814.84
2022-11-08T18:30:54.875Z,99828.22
2022-11-08T18:33:43.663Z,99820.59
2022-11-08T18:36:31.681Z,99822.66
2022-11-08T18:39:22.493Z,99827.66
2022-11-08T18:42:10.256Z,99830.13
2022-11-08T18:44:57.885Z,99835.28
2022-11-08T18:47:45.537Z,99829.56
2022-11-08T18:50:33.365Z,99834.47
2022-11-08T18:53:21.610Z,99837.88
2022-11-08T18:56:11.198Z,99838.66
2022-11-08T18:58:58.863Z,99842.91
2022-11-08T19:01:46.519Z,99836.22
2022-11-08T19:04:34.199Z,99835.41
2022-11-08T19:07:22.184Z,99827.66
2022-11-08T19:10:09.964Z,99836.91
2022-11-08T19:12:57.584Z,99832.56
2022-11-08T19:15:45.601Z,99836.63
2022-11-08T19:18:34.224Z,99838.78
2022-11-08T19:21:26.642Z,99843.69
2022-11-08T19:24:14.236Z,99841.09
2022-11-08T19:27:01.992Z,99845.28
2022-11-08T19:29:50.224Z,99848.53
2022-11-08T19:32:37.845Z,99848.53
2022-11-08T19:35:25.416Z,99846.91
2022-11-08T19:38:13.088Z,99837.69
2022-11-08T19:41:02.179Z,99848.41
2022-11-08T19:43:51.922Z,99856.16
2022-11-08T19:46:40.594Z,99855.06
2022-11-08T19:49:29.276Z,99846.34
2022-11-08T19:52:16.895Z,99855.06
2022-11-08T19:55:04.865Z,99854.09
2022-11-08T19:57:52.484Z,99854.75
2022-11-08T20:00:40.213Z,99851.22
2022-11-08T20:03:27.806Z,99850.94
2022-11-08T20:06:18.090Z,99860.03
2022-11-08T20:09:06.609Z,99858.94
2022-11-08T20:11:55.093Z,99848.88
2022-11-08T20:14:42.694Z,99848.19
2022-11-08T20:17:33.236Z,99853.22
2022-11-08T20:20:20.859Z,99857.28
2022-11-08T20:23:09.162Z,99861.38
2022-11-08T20:26:01.096Z,99858.50
2022-11-08T20:28:56.312Z,99858.75
2022-11-08T20:31:44.294Z,99858.97
2022-11-08T20:34:32.378Z,99865.47
2022-11-08T20:37:20.115Z,99860.59
2022-11-08T20:40:08.587Z,99862.50
2022-11-08T20:42:56.232Z,99863.44
2022-11-08T20:45:43.825Z,99861.84
2022-11-08T20:48:32.202Z,99859.47
2022-11-08T20:51:20.890Z,99856.75
2022-11-08T20:54:10.278Z,99863.56
2022-11-08T20:56:58.141Z,99862.72
2022-11-08T20:59:46.117Z,99860.28
2022-11-08T21:02:33.747Z,99867.09
2022-11-08T21:05:21.880Z,99857.72
2022-11-08T21:08:57.974Z,99856.09
2022-11-08T21:11:17.839Z,99847.91
2022-11-08T21:14:05.493Z,99848.31
2022-11-08T21:17:20.134Z,99849.09
2022-11-08T21:20:01.189Z,99848.97
2022-11-08T21:22:49.047Z,99849.09
2022-11-08T21:25:36.699Z,99850.75
2022-11-08T21:28:24.881Z,99849.66
2022-11-08T21:31:13.062Z,99848.69
2022-11-08T21:34:00.840Z,99858.88
2022-11-08T21:36:48.536Z,99854.22
2022-11-08T21:39:36.152Z,99849.84
2022-11-08T21:42:23.772Z,99856.66
2022-11-08T21:45:11.639Z,99845.50
2022-11-08T21:47:59.241Z,99858.13
2022-11-08T21:50:46.865Z,99861.53
2022-11-08T21:53:34.477Z,99857.97
2022-11-08T21:56:23.855Z,99858.53
2022-11-08T21:59:11.532Z,99869.97
2022-11-08T22:01:59.248Z,99857.47
2022-11-08T22:04:46.905Z,99862.50
2022-11-08T22:07:35.294Z,99871.59
2022-11-08T22:10:22.900Z,99866.41
2022-11-08T22:13:10.528Z,99861.78
2022-11-08T22:15:58.198Z,99869.09
2022-11-08T22:21:53.420Z,99860.38
2022-11-08T22:24:41.196Z,99862.13
2022-11-08T22:27:28.871Z,99871.00
2022-11-08T22:30:17.011Z,99867.22
2022-11-08T22:33:04.712Z,99874.16
2022-11-08T22:35:52.393Z,99872.25
2022-11-08T22:38:40.183Z,99867.75
2022-11-08T22:41:28.626Z,99877.81
2022-11-08T22:44:17.084Z,99873.59
2022-11-08T22:47:04.667Z,99869.22
2022-11-08T22:49:52.315Z,99875.06
2022-11-08T22:52:39.954Z,99872.66
2022-11-08T22:55:28.013Z,99868.41
2022-11-08T22:58:15.668Z,99862.72
2022-11-08T23:01:03.773Z,99859.63
2022-11-08T23:03:51.436Z,99866.72
2022-11-08T23:06:39.942Z,99860.88
2022-11-08T23:09:27.537Z,99869.16
2022-11-08T23:12:34.020Z,99864.78
2022-11-08T23:15:40.069Z,99867.22
2022-11-08T23:18:28.265Z,99862.38
2022-11-08T23:21:34.467Z,99873.06
2022-11-08T23:24:22.217Z,99868.06
2022-11-08T23:27:30.665Z,99858.22
2022-11-08T23:30:37.385Z,99871.81
2022-11-08T23:33:25.117Z,99869.38
2022-11-08T23:36:14.268Z,99871.66
2022-11-08T23:39:01.896Z,99880.25
2022-11-08T23:42:08.163Z,99877.50
2022-11-08T23:44:55.798Z,99872.75
2022-11-08T23:47:43.515Z,99872.66
2022-11-08T23:50:31.377Z,99875.91
2022-11-08T23:53:21.146Z,99866.22
2022-11-08T23:56:09.076Z,99860.72
2022-11-08T23:58:58.765Z,99863.16
